createdAt,value
2023-02-12T00:01:52.137Z,41.77
2023-02-12T00:04:53.918Z,51.63
2023-02-12T00:07:55.623Z,25.97
2023-02-12T00:10:57.215Z,24.50
2023-02-12T00:13:58.876Z,29.80
2023-02-12T00:17:00.642Z,33.17
2023-02-12T00:20:02.312Z,35.43
2023-02-12T00:23:04.306Z,27.70
2023-02-12T00:26:09.487Z,43.90
2023-02-12T00:29:12.291Z,32.97
2023-02-12T00:32:14.485Z,35.50
2023-02-12T00:35:16.244Z,38.53
2023-02-12T00:38:19.271Z,33.20
2023-02-12T00:41:21.356Z,30.17
2023-02-12T00:44:23.181Z,28.47
2023-02-12T00:47:24.803Z,30.30
2023-02-12T00:50:26.512Z,26.67
2023-02-12T00:53:28.473Z,34.70
2023-02-12T00:56:30.059Z,40.40
2023-02-12T00:59:31.951Z,19.37
2023-02-12T01:02:33.619Z,24.90
2023-02-12T01:05:35.372Z,23.00
2023-02-12T01:08:36.958Z,27.23
2023-02-12T01:11:39.225Z,28.80
2023-02-12T01:14:40.909Z,32.40
2023-02-12T01:17:42.827Z,37.67
2023-02-12T01:20:44.446Z,37.83
2023-02-12T01:23:46.531Z,51.90
2023-02-12T01:26:48.524Z,46.33
2023-02-12T01:29:50.123Z,36.67
2023-02-12T01:32:51.736Z,34.60
2023-02-12T01:35:53.639Z,31.97
2023-02-12T01:38:56.038Z,33.40
2023-02-12T01:41:57.703Z,16.67
2023-02-12T01:45:14.596Z,33.60
2023-02-12T01:48:17.092Z,16.10
2023-02-12T01:51:20.042Z,19.77
2023-02-12T01:54:22.820Z,18.13
2023-02-12T01:57:25.065Z,24.47
2023-02-12T02:00:26.805Z,25.63
2023-02-12T02:03:28.660Z,16.23
2023-02-12T02:06:33.718Z,23.27
2023-02-12T02:09:37.389Z,25.03
2023-02-12T02:12:58.073Z,23.97
2023-02-12T02:16:03.839Z,18.20
2023-02-12T02:19:11.661Z,18.90
2023-02-12T02:22:32.104Z,25.03
2023-02-12T02:25:50.751Z,22.07
2023-02-12T02:28:55.351Z,36.30
2023-02-12T02:32:15.603Z,37.83
2023-02-12T02:35:29.506Z,24.47
2023-02-12T02:38:43.480Z,30.83
2023-02-12T02:41:48.082Z,23.87
2023-02-12T02:44:54.074Z,21.67
2023-02-12T02:48:00.198Z,25.40
2023-02-12T02:51:04.111Z,21.73
2023-02-12T02:54:09.698Z,26.73
2023-02-12T02:57:16.227Z,25.37
2023-02-12T03:00:18.446Z,23.10
2023-02-12T03:03:23.462Z,20.23
2023-02-12T03:06:45.311Z,23.00
2023-02-12T03:09:52.864Z,23.67
2023-02-12T03:12:58.178Z,27.03
2023-02-12T03:16:04.751Z,28.73
2023-02-12T03:19:09.551Z,24.10
2023-02-12T03:22:14.357Z,27.37
2023-02-12T03:25:18.160Z,25.17
2023-02-12T03:28:22.582Z,28.90
2023-02-12T03:31:24.190Z,31.57
2023-02-12T03:34:44.749Z,31.87
2023-02-12T03:37:46.327Z,34.73
2023-02-12T03:40:53.972Z,33.43
2023-02-12T03:44:09.194Z,36.70
2023-02-12T03:47:13.467Z,37.63
2023-02-12T03:50:15.060Z,39.47
2023-02-12T03:53:16.681Z,38.73
2023-02-12T03:56:20.594Z,33.27
2023-02-12T03:59:23.597Z,28.03
2023-02-12T04:02:25.336Z,31.10
2023-02-12T04:05:28.343Z,29.53
2023-02-12T04:08:30.856Z,35.17
2023-02-12T04:11:51.395Z,32.93
2023-02-12T04:14:55.123Z,32.17
2023-02-12T04:18:09.211Z,32.47
2023-02-12T04:21:10.968Z,27.90
2023-02-12T04:24:27.806Z,24.53
2023-02-12T04:27:35.134Z,23.33
2023-02-12T04:30:53.302Z,21.93
2023-02-12T04:33:57.818Z,20.97
2023-02-12T04:37:02.939Z,20.00
2023-02-12T04:40:09.818Z,19.47
2023-02-12T04:43:11.442Z,35.87
2023-02-12T04:46:13.077Z,34.33
2023-02-12T04:49:16.367Z,24.77
2023-02-12T04:52:18.012Z,23.47
2023-02-12T04:55:19.585Z,23.87
2023-02-12T04:58:21.326Z,21.03
2023-02-12T05:01:22.995Z,18.27
2023-02-12T05:04:24.616Z,18.20
2023-02-12T05:07:26.203Z,19.20
2023-02-12T05:10:27.828Z,19.63
2023-02-12T05:13:29.455Z,20.37
2023-02-12T05:16:31.145Z,24.80
2023-02-12T05:19:32.816Z,20.60
2023-02-12T05:22:34.681Z,21.10
2023-02-12T05:25:36.230Z,20.27
2023-02-12T05:28:37.881Z,18.90
2023-02-12T05:31:39.664Z,31.50
2023-02-12T05:34:41.300Z,24.40
2023-02-12T05:37:42.841Z,22.17
2023-02-12T05:40:44.524Z,50.37
2023-02-12T05:43:49.137Z,44.63
2023-02-12T05:46:51.264Z,29.30
2023-02-12T05:49:53.028Z,30.03
2023-02-12T05:52:54.665Z,29.10
2023-02-12T05:56:09.688Z,32.90
2023-02-12T05:59:17.129Z,36.50
2023-02-12T06:02:18.783Z,34.80
2023-02-12T06:05:20.494Z,30.97
2023-02-12T06:08:22.052Z,37.93
2023-02-12T06:11:23.752Z,40.73
2023-02-12T06:14:25.382Z,34.60
2023-02-12T06:17:26.978Z,44.50
2023-02-12T06:20:28.728Z,55.30
2023-02-12T06:23:30.345Z,53.00
2023-02-12T06:26:31.956Z,63.27
2023-02-12T06:29:33.711Z,41.10
2023-02-12T06:32:35.348Z,42.67
2023-02-12T06:35:39.380Z,39.57
2023-02-12T06:38:41.143Z,38.60
2023-02-12T06:41:44.026Z,39.83
2023-02-12T06:44:46.707Z,45.07
2023-02-12T06:47:48.324Z,40.53
2023-02-12T06:50:49.968Z,46.80
2023-02-12T06:53:52.511Z,52.80
2023-02-12T06:56:54.366Z,43.03
2023-02-12T06:59:56.117Z,50.33
2023-02-12T07:02:57.767Z,50.73
2023-02-12T07:05:59.387Z,41.87
2023-02-12T07:09:01.338Z,59.67
2023-02-12T07:12:03.316Z,51.97
2023-02-12T07:15:05.184Z,31.30
2023-02-12T07:18:06.807Z,35.40
2023-02-12T07:21:09.037Z,32.30
2023-02-12T07:24:11.960Z,62.07
2023-02-12T07:27:13.640Z,56.73
2023-02-12T07:30:15.398Z,53.77
2023-02-12T07:33:17.337Z,49.70
2023-02-12T07:36:19.852Z,46.70
2023-02-12T07:39:21.565Z,44.63
2023-02-12T07:42:23.359Z,35.43
2023-02-12T07:45:25.102Z,36.20
2023-02-12T07:48:26.769Z,44.63
2023-02-12T07:51:28.895Z,41.63
2023-02-12T07:54:30.504Z,52.07
2023-02-12T07:57:32.120Z,45.47
2023-02-12T08:00:33.721Z,38.73
2023-02-12T08:03:35.599Z,54.10
2023-02-12T08:06:39.011Z,50.10
2023-02-12T08:09:40.648Z,51.63
2023-02-12T08:12:42.455Z,37.00
2023-02-12T08:15:47.139Z,47.97
2023-02-12T08:18:48.943Z,52.00
2023-02-12T08:21:51.496Z,40.53
2023-02-12T08:24:53.128Z,40.57
2023-02-12T08:27:54.851Z,40.23
2023-02-12T08:31:00.231Z,46.93
2023-02-12T08:34:02.207Z,68.77
2023-02-12T08:37:06.996Z,58.90
2023-02-12T08:40:08.942Z,46.07
2023-02-12T08:43:10.633Z,59.73
2023-02-12T08:46:14.110Z,39.00
2023-02-12T08:49:19.100Z,38.73
2023-02-12T08:52:20.728Z,46.77
2023-02-12T08:55:22.455Z,44.00
2023-02-12T08:58:24.082Z,39.50
2023-02-12T09:01:27.678Z,39.97
2023-02-12T09:04:29.535Z,36.77
2023-02-12T09:07:31.204Z,47.90
2023-02-12T09:10:32.840Z,46.13
2023-02-12T09:13:34.774Z,38.10
2023-02-12T09:16:37.094Z,46.43
2023-02-12T09:19:38.692Z,37.47
2023-02-12T09:22:40.363Z,37.90
2023-02-12T09:25:46.276Z,37.80
2023-02-12T09:28:48.833Z,38.23
2023-02-12T09:31:50.689Z,44.13
2023-02-12T09:34:52.335Z,37.40
2023-02-12T09:37:54.062Z,41.53
2023-02-12T09:40:58.691Z,34.87
2023-02-12T09:44:09.560Z,40.33
2023-02-12T09:47:14.398Z,33.83
2023-02-12T09:50:34.849Z,37.83
2023-02-12T09:53:39.415Z,29.67
2023-02-12T09:56:42.894Z,39.57
2023-02-12T09:59:46.869Z,39.93
2023-02-12T10:02:50.594Z,43.30
2023-02-12T10:05:58.249Z,32.77
2023-02-12T10:09:09.185Z,36.93
2023-02-12T10:12:25.815Z,31.97
2023-02-12T10:15:35.445Z,32.90
2023-02-12T10:18:56.045Z,33.90
2023-02-12T10:22:16.466Z,33.97
2023-02-12T10:25:24.435Z,38.40
2023-02-12T10:28:28.341Z,30.80
2023-02-12T10:31:32.318Z,29.93
2023-02-12T10:34:35.394Z,37.50
2023-02-12T10:37:42.935Z,33.70
2023-02-12T10:40:44.967Z,38.77
2023-02-12T10:43:46.564Z,30.17
2023-02-12T10:46:48.282Z,32.20
2023-02-12T10:49:52.528Z,32.23
2023-02-12T10:52:56.022Z,29.33
2023-02-12T10:56:09.856Z,28.00
2023-02-12T10:59:22.348Z,31.83
2023-02-12T11:02:24.040Z,37.53
2023-02-12T11:05:26.557Z,30.10
2023-02-12T11:08:30.754Z,37.13
2023-02-12T11:11:37.961Z,33.50
2023-02-12T11:14:39.651Z,39.03
2023-02-12T11:17:42.951Z,35.20
2023-02-12T11:20:51.668Z,28.70
2023-02-12T11:23:53.353Z,32.03
2023-02-12T11:27:13.350Z,33.50
2023-02-12T11:30:15.132Z,32.97
2023-02-12T11:33:24.419Z,41.10
2023-02-12T11:36:27.566Z,33.10
2023-02-12T11:39:32.874Z,39.30
2023-02-12T11:42:37.664Z,37.67
2023-02-12T11:45:47.874Z,36.30
2023-02-12T11:48:50.990Z,38.77
2023-02-12T11:51:53.040Z,37.40
2023-02-12T11:55:06.811Z,34.50
2023-02-12T11:58:15.851Z,35.00
2023-02-12T12:01:26.543Z,37.27
2023-02-12T12:04:29.651Z,38.80
2023-02-12T12:07:33.847Z,51.57
2023-02-12T12:10:39.734Z,38.57
2023-02-12T12:13:49.806Z,41.07
2023-02-12T12:17:14.709Z,44.80
2023-02-12T12:20:20.016Z,38.57
2023-02-12T12:23:24.968Z,39.73
2023-02-12T12:26:30.963Z,35.37
2023-02-12T12:29:41.732Z,36.30
2023-02-12T12:32:44.248Z,45.30
2023-02-12T12:35:54.798Z,38.23
2023-02-12T12:38:56.812Z,37.47
2023-02-12T12:42:07.554Z,56.33
2023-02-12T12:45:27.934Z,46.77
2023-02-12T12:48:41.680Z,45.60
2023-02-12T12:52:09.611Z,42.10
2023-02-12T12:55:24.097Z,46.93
2023-02-12T12:58:45.947Z,44.60
2023-02-12T13:01:53.630Z,46.07
2023-02-12T13:05:14.018Z,40.93
2023-02-12T13:08:21.907Z,36.57
2023-02-12T13:11:35.539Z,49.17
2023-02-12T13:14:37.143Z,42.90
2023-02-12T13:17:53.454Z,44.50
2023-02-12T13:21:10.461Z,36.53
2023-02-12T13:24:43.004Z,40.10
2023-02-12T13:27:46.311Z,44.27
2023-02-12T13:30:52.330Z,47.73
2023-02-12T13:33:59.798Z,43.03
2023-02-12T13:37:02.747Z,49.50
2023-02-12T13:40:05.931Z,59.50
2023-02-12T13:43:10.733Z,41.60
2023-02-12T13:46:30.024Z,48.67
2023-02-12T13:49:37.675Z,61.50
2023-02-12T13:52:43.823Z,56.33
2023-02-12T13:56:11.708Z,88.47
2023-02-12T13:59:31.646Z,71.43
2023-02-12T14:02:33.308Z,46.27
2023-02-12T14:05:35.355Z,49.53
2023-02-12T14:08:42.326Z,52.23
2023-02-12T14:11:54.036Z,50.83
2023-02-12T14:15:07.912Z,49.80
2023-02-12T14:18:28.357Z,57.27
2023-02-12T14:21:29.999Z,59.73
2023-02-12T14:24:37.808Z,50.37
2023-02-12T14:27:45.750Z,58.57
2023-02-12T14:31:06.587Z,60.47
2023-02-12T14:34:19.564Z,73.83
2023-02-12T14:37:38.323Z,66.43
2023-02-12T14:40:49.900Z,65.83
2023-02-12T14:44:03.673Z,68.20
2023-02-12T14:47:25.519Z,51.03
2023-02-12T14:50:38.938Z,62.37
2023-02-12T14:53:41.097Z,64.60
2023-02-12T14:56:46.799Z,69.47
2023-02-12T14:59:48.857Z,55.70
2023-02-12T15:03:10.852Z,65.47
2023-02-12T15:06:22.994Z,78.77
2023-02-12T15:09:35.955Z,65.80
2023-02-12T15:12:40.015Z,75.23
2023-02-12T15:16:05.080Z,66.70
2023-02-12T15:19:25.780Z,69.87
2023-02-12T15:22:38.358Z,71.67
2023-02-12T15:25:40.252Z,78.03
2023-02-12T15:28:43.253Z,81.90
2023-02-12T15:31:49.956Z,101.63
2023-02-12T15:34:54.695Z,85.40
2023-02-12T15:37:57.520Z,114.37
2023-02-12T15:41:00.212Z,112.90
2023-02-12T15:44:03.361Z,87.73
2023-02-12T15:47:16.394Z,85.23
2023-02-12T15:50:18.269Z,70.87
2023-02-12T15:53:20.594Z,75.67
2023-02-12T15:56:23.349Z,61.60
2023-02-12T15:59:28.888Z,61.87
2023-02-12T16:02:33.041Z,68.73
2023-02-12T16:05:35.436Z,66.80
2023-02-12T16:08:37.784Z,75.23
2023-02-12T16:11:40.047Z,90.60
2023-02-12T16:14:49.371Z,99.80
2023-02-12T16:17:50.973Z,128.17
2023-02-12T16:21:03.253Z,115.47
2023-02-12T16:24:05.651Z,91.27
2023-02-12T16:27:09.547Z,96.97
2023-02-12T16:30:24.910Z,90.47
2023-02-12T16:33:49.894Z,92.53
2023-02-12T16:36:52.056Z,89.20
2023-02-12T16:39:53.676Z,77.90
2023-02-12T16:42:59.624Z,104.50
2023-02-12T16:46:03.184Z,81.23
2023-02-12T16:49:04.990Z,93.40
2023-02-12T16:52:28.315Z,93.63
2023-02-12T16:55:30.055Z,86.50
2023-02-12T16:58:31.712Z,94.83
2023-02-12T17:01:34.694Z,92.30
2023-02-12T17:04:36.345Z,92.27
2023-02-12T17:07:38.016Z,94.67
2023-02-12T17:10:39.873Z,93.80
2023-02-12T17:13:41.562Z,99.67
2023-02-12T17:16:43.281Z,104.77
2023-02-12T17:19:44.979Z,125.73
2023-02-12T17:22:51.358Z,121.20
2023-02-12T17:25:52.956Z,119.03
2023-02-12T17:28:54.718Z,131.60
2023-02-12T17:31:56.432Z,158.93
2023-02-12T17:34:58.147Z,154.00
2023-02-12T17:38:00.029Z,133.77
2023-02-12T17:41:01.733Z,130.20
2023-02-12T17:44:03.396Z,129.97
2023-02-12T17:47:05.075Z,135.47
2023-02-12T17:50:07.976Z,133.33
2023-02-12T17:53:10.048Z,132.23
2023-02-12T17:56:12.499Z,155.80
2023-02-12T17:59:14.145Z,156.83
2023-02-12T18:02:15.919Z,205.83
2023-02-12T18:05:17.617Z,204.13
2023-02-12T18:08:19.302Z,203.13
2023-02-12T18:11:21.020Z,197.53
2023-02-12T18:14:22.632Z,241.90
2023-02-12T18:17:24.575Z,285.27
2023-02-12T18:20:26.149Z,190.37
2023-02-12T18:23:27.806Z,133.50
2023-02-12T18:26:29.512Z,144.70
2023-02-12T18:29:31.348Z,165.60
2023-02-12T18:32:33.205Z,171.27
2023-02-12T18:35:37.040Z,179.27
2023-02-12T18:38:39.887Z,173.07
2023-02-12T18:41:41.973Z,168.90
2023-02-12T18:44:43.832Z,157.33
2023-02-12T18:47:46.203Z,142.50
2023-02-12T18:50:51.777Z,144.67
2023-02-12T18:53:55.258Z,143.53
2023-02-12T18:56:57.235Z,137.33
2023-02-12T18:59:59.284Z,120.27
2023-02-12T19:03:01.483Z,97.07
2023-02-12T19:06:04.382Z,110.00
2023-02-12T19:09:06.326Z,175.47
2023-02-12T19:12:08.312Z,167.83
2023-02-12T19:15:09.963Z,181.83
2023-02-12T19:18:11.556Z,153.03
2023-02-12T19:21:14.046Z,127.00
2023-02-12T19:24:15.940Z,120.03
2023-02-12T19:27:18.051Z,139.30
2023-02-12T19:30:19.896Z,141.97
2023-02-12T19:33:21.635Z,160.00
2023-02-12T19:36:23.732Z,155.57
2023-02-12T19:39:25.998Z,160.70
2023-02-12T19:42:27.648Z,189.03
2023-02-12T19:45:29.235Z,182.10
2023-02-12T19:48:31.206Z,167.53
2023-02-12T19:51:33.147Z,164.00
2023-02-12T19:54:35.165Z,151.50
2023-02-12T19:57:38.610Z,155.63
2023-02-12T20:00:40.350Z,149.03
2023-02-12T20:03:42.388Z,137.57
2023-02-12T20:06:45.994Z,149.43
2023-02-12T20:09:50.554Z,157.93
2023-02-12T20:12:52.290Z,172.57
2023-02-12T20:15:54.701Z,186.43
2023-02-12T20:18:58.937Z,156.00
2023-02-12T20:22:01.715Z,113.77
2023-02-12T20:25:03.619Z,93.40
2023-02-12T20:28:05.243Z,98.57
2023-02-12T20:31:10.049Z,83.47
2023-02-12T20:34:13.530Z,101.47
2023-02-12T20:37:15.077Z,103.53
2023-02-12T20:40:17.012Z,94.90
2023-02-12T20:43:18.626Z,88.70
2023-02-12T20:46:21.846Z,96.57
2023-02-12T20:49:23.475Z,117.43
2023-02-12T20:52:25.167Z,113.03
2023-02-12T20:55:26.797Z,115.93
2023-02-12T20:58:28.939Z,110.37
2023-02-12T21:01:36.343Z,115.40
2023-02-12T21:04:38.058Z,109.73
2023-02-12T21:07:39.770Z,98.37
2023-02-12T21:10:41.408Z,85.23
2023-02-12T21:13:53.687Z,101.93
2023-02-12T21:17:00.798Z,101.27
2023-02-12T21:20:02.401Z,119.57
2023-02-12T21:23:04.057Z,106.87
2023-02-12T21:26:07.185Z,106.10
2023-02-12T21:29:08.922Z,109.87
2023-02-12T21:32:10.638Z,98.63
2023-02-12T21:35:12.345Z,101.70
2023-02-12T21:38:13.983Z,113.50
2023-02-12T21:41:17.716Z,115.30
2023-02-12T21:44:19.811Z,127.93
2023-02-12T21:47:21.444Z,126.43
2023-02-12T21:50:23.167Z,126.03
2023-02-12T21:53:24.859Z,119.17
2023-02-12T21:56:26.753Z,98.77
2023-02-12T21:59:30.825Z,117.20
2023-02-12T22:02:33.838Z,102.07
2023-02-12T22:05:35.437Z,95.00
2023-02-12T22:08:37.315Z,90.83
2023-02-12T22:11:39.879Z,88.43
2023-02-12T22:14:41.527Z,71.67
2023-02-12T22:17:43.291Z,81.97
2023-02-12T22:20:44.863Z,68.07
2023-02-12T22:23:46.452Z,64.43
2023-02-12T22:26:48.216Z,77.10
2023-02-12T22:29:50.466Z,76.43
2023-02-12T22:32:52.098Z,62.53
2023-02-12T22:35:53.709Z,68.57
2023-02-12T22:38:57.409Z,74.60
2023-02-12T22:41:59.066Z,64.53
2023-02-12T22:45:00.759Z,72.00
2023-02-12T22:48:02.388Z,74.20
2023-02-12T22:51:09.934Z,69.63
2023-02-12T22:54:14.254Z,81.77
2023-02-12T22:57:18.860Z,68.50
2023-02-12T23:00:20.707Z,65.20
2023-02-12T23:03:22.329Z,65.57
2023-02-12T23:06:29.276Z,68.67
2023-02-12T23:09:30.987Z,71.87
2023-02-12T23:12:32.618Z,72.47
2023-02-12T23:15:34.179Z,73.97
2023-02-12T23:18:35.909Z,72.13
2023-02-12T23:21:37.716Z,86.93
2023-02-12T23:24:39.370Z,83.47
2023-02-12T23:27:40.943Z,89.00
2023-02-12T23:30:42.797Z,94.13
2023-02-12T23:33:44.567Z,86.90
2023-02-12T23:36:46.233Z,88.43
2023-02-12T23:39:47.875Z,75.67
2023-02-12T23:42:49.480Z,91.67
2023-02-12T23:45:51.141Z,90.63
2023-02-12T23:48:52.841Z,76.80
2023-02-12T23:51:54.416Z,80.83
2023-02-12T23:54:56.859Z,74.83
2023-02-12T23:57:58.537Z,74.87
